sensor_id;sensor_type;location;lat;lon;timestamp;P1;durP1;ratioP1;P2;durP2;ratioP2
71148;SDS011;59072;42.144;25.200;2022-07-06T00:01:54;6.07;;;3.17;;
71148;SDS011;59072;42.144;25.200;2022-07-06T00:04:19;6.50;;;3.40;;
71148;SDS011;59072;42.144;25.200;2022-07-06T00:06:45;8.95;;;3.85;;
71148;SDS011;59072;42.144;25.200;2022-07-06T00:09:11;5.88;;;3.30;;
71148;SDS011;59072;42.144;25.200;2022-07-06T00:11:36;6.50;;;3.42;;
71148;SDS011;59072;42.144;25.200;2022-07-06T00:14:02;7.15;;;3.72;;
71148;SDS011;59072;42.144;25.200;2022-07-06T00:16:27;6.47;;;3.25;;
71148;SDS011;59072;42.144;25.200;2022-07-06T00:18:53;6.82;;;3.53;;
71148;SDS011;59072;42.144;25.200;2022-07-06T00:21:19;8.25;;;3.53;;
71148;SDS011;59072;42.144;25.200;2022-07-06T00:23:44;7.63;;;3.75;;
71148;SDS011;59072;42.144;25.200;2022-07-06T00:26:10;7.93;;;3.88;;
71148;SDS011;59072;42.144;25.200;2022-07-06T00:28:36;8.05;;;4.10;;
71148;SDS011;59072;42.144;25.200;2022-07-06T00:31:01;7.97;;;3.75;;
71148;SDS011;59072;42.144;25.200;2022-07-06T00:33:27;7.70;;;3.88;;
71148;SDS011;59072;42.144;25.200;2022-07-06T00:35:52;8.90;;;4.22;;
71148;SDS011;59072;42.144;25.200;2022-07-06T00:38:18;9.75;;;4.22;;
71148;SDS011;59072;42.144;25.200;2022-07-06T00:40:43;7.40;;;4.00;;
71148;SDS011;59072;42.144;25.200;2022-07-06T00:43:09;7.07;;;3.90;;
71148;SDS011;59072;42.144;25.200;2022-07-06T00:45:34;7.57;;;4.03;;
71148;SDS011;59072;42.144;25.200;2022-07-06T00:48:00;7.82;;;4.43;;
71148;SDS011;59072;42.144;25.200;2022-07-06T00:50:26;7.60;;;4.20;;
71148;SDS011;59072;42.144;25.200;2022-07-06T00:52:58;8.13;;;4.35;;
71148;SDS011;59072;42.144;25.200;2022-07-06T00:55:30;8.43;;;4.13;;
71148;SDS011;59072;42.144;25.200;2022-07-06T00:58:03;8.93;;;4.85;;
71148;SDS011;59072;42.144;25.200;2022-07-06T01:00:29;6.88;;;3.95;;
71148;SDS011;59072;42.144;25.200;2022-07-06T01:02:55;8.10;;;4.00;;
71148;SDS011;59072;42.144;25.200;2022-07-06T01:05:21;7.93;;;4.45;;
71148;SDS011;59072;42.144;25.200;2022-07-06T01:07:47;7.53;;;3.95;;
71148;SDS011;59072;42.144;25.200;2022-07-06T01:10:15;10.60;;;4.13;;
71148;SDS011;59072;42.144;25.200;2022-07-06T01:12:42;8.07;;;4.78;;
71148;SDS011;59072;42.144;25.200;2022-07-06T01:15:10;9.57;;;4.07;;
71148;SDS011;59072;42.144;25.200;2022-07-06T01:17:40;7.57;;;3.95;;
71148;SDS011;59072;42.144;25.200;2022-07-06T01:22:37;5.95;;;4.32;;
71148;SDS011;59072;42.144;25.200;2022-07-06T01:25:04;10.68;;;4.18;;
71148;SDS011;59072;42.144;25.200;2022-07-06T01:27:31;10.27;;;4.32;;
71148;SDS011;59072;42.144;25.200;2022-07-06T01:29:59;6.50;;;4.28;;
71148;SDS011;59072;42.144;25.200;2022-07-06T01:32:25;8.30;;;4.40;;
71148;SDS011;59072;42.144;25.200;2022-07-06T01:34:50;7.03;;;4.00;;
71148;SDS011;59072;42.144;25.200;2022-07-06T01:37:16;7.65;;;4.50;;
71148;SDS011;59072;42.144;25.200;2022-07-06T01:39:41;5.78;;;3.75;;
71148;SDS011;59072;42.144;25.200;2022-07-06T01:42:07;7.22;;;4.53;;
71148;SDS011;59072;42.144;25.200;2022-07-06T01:44:32;9.75;;;4.50;;
71148;SDS011;59072;42.144;25.200;2022-07-06T01:46:58;11.13;;;4.60;;
71148;SDS011;59072;42.144;25.200;2022-07-06T01:49:23;7.78;;;4.43;;
71148;SDS011;59072;42.144;25.200;2022-07-06T01:51:49;8.70;;;4.38;;
71148;SDS011;59072;42.144;25.200;2022-07-06T01:54:14;9.75;;;4.20;;
71148;SDS011;59072;42.144;25.200;2022-07-06T01:56:39;9.40;;;5.13;;
71148;SDS011;59072;42.144;25.200;2022-07-06T01:59:05;9.35;;;4.32;;
71148;SDS011;59072;42.144;25.200;2022-07-06T02:01:30;8.82;;;4.57;;
71148;SDS011;59072;42.144;25.200;2022-07-06T02:03:56;10.05;;;4.18;;
71148;SDS011;59072;42.144;25.200;2022-07-06T02:06:21;7.40;;;4.35;;
71148;SDS011;59072;42.144;25.200;2022-07-06T02:08:47;10.82;;;5.20;;
71148;SDS011;59072;42.144;25.200;2022-07-06T02:11:12;9.50;;;4.20;;
71148;SDS011;59072;42.144;25.200;2022-07-06T02:13:38;8.93;;;4.13;;
71148;SDS011;59072;42.144;25.200;2022-07-06T02:16:04;7.25;;;4.20;;
71148;SDS011;59072;42.144;25.200;2022-07-06T02:18:29;6.80;;;4.65;;
71148;SDS011;59072;42.144;25.200;2022-07-06T02:20:55;7.75;;;4.57;;
71148;SDS011;59072;42.144;25.200;2022-07-06T02:23:21;9.30;;;4.65;;
71148;SDS011;59072;42.144;25.200;2022-07-06T02:25:47;7.30;;;4.13;;
71148;SDS011;59072;42.144;25.200;2022-07-06T02:28:12;8.38;;;4.43;;
71148;SDS011;59072;42.144;25.200;2022-07-06T02:30:38;7.43;;;4.53;;
71148;SDS011;59072;42.144;25.200;2022-07-06T02:33:03;12.40;;;4.90;;
71148;SDS011;59072;42.144;25.200;2022-07-06T02:35:29;9.45;;;4.70;;
71148;SDS011;59072;42.144;25.200;2022-07-06T02:37:54;8.43;;;4.75;;
71148;SDS011;59072;42.144;25.200;2022-07-06T02:40:20;9.25;;;4.72;;
71148;SDS011;59072;42.144;25.200;2022-07-06T02:42:45;8.38;;;4.85;;
71148;SDS011;59072;42.144;25.200;2022-07-06T02:45:11;9.52;;;5.60;;
71148;SDS011;59072;42.144;25.200;2022-07-06T02:47:36;9.05;;;4.75;;
71148;SDS011;59072;42.144;25.200;2022-07-06T02:50:03;8.57;;;4.78;;
71148;SDS011;59072;42.144;25.200;2022-07-06T02:52:29;9.02;;;4.60;;
71148;SDS011;59072;42.144;25.200;2022-07-06T02:54:55;11.02;;;4.60;;
71148;SDS011;59072;42.144;25.200;2022-07-06T02:57:20;10.57;;;4.50;;
71148;SDS011;59072;42.144;25.200;2022-07-06T02:59:46;9.07;;;5.35;;
71148;SDS011;59072;42.144;25.200;2022-07-06T03:02:14;12.48;;;5.10;;
71148;SDS011;59072;42.144;25.200;2022-07-06T03:04:41;10.95;;;5.20;;
71148;SDS011;59072;42.144;25.200;2022-07-06T03:07:06;9.90;;;5.28;;
71148;SDS011;59072;42.144;25.200;2022-07-06T03:09:32;17.63;;;7.07;;
71148;SDS011;59072;42.144;25.200;2022-07-06T03:11:57;17.80;;;6.18;;
71148;SDS011;59072;42.144;25.200;2022-07-06T03:14:23;9.77;;;5.30;;
71148;SDS011;59072;42.144;25.200;2022-07-06T03:16:50;15.15;;;6.45;;
71148;SDS011;59072;42.144;25.200;2022-07-06T03:19:16;12.10;;;5.82;;
71148;SDS011;59072;42.144;25.200;2022-07-06T03:21:41;38.50;;;9.38;;
71148;SDS011;59072;42.144;25.200;2022-07-06T03:24:08;18.55;;;6.65;;
71148;SDS011;59072;42.144;25.200;2022-07-06T03:26:33;12.00;;;6.03;;
71148;SDS011;59072;42.144;25.200;2022-07-06T03:28:59;16.25;;;5.78;;
71148;SDS011;59072;42.144;25.200;2022-07-06T03:31:24;11.55;;;5.47;;
71148;SDS011;59072;42.144;25.200;2022-07-06T03:33:50;11.02;;;6.00;;
71148;SDS011;59072;42.144;25.200;2022-07-06T03:36:16;17.17;;;6.50;;
71148;SDS011;59072;42.144;25.200;2022-07-06T03:38:42;16.77;;;8.57;;
71148;SDS011;59072;42.144;25.200;2022-07-06T03:41:07;18.40;;;8.25;;
71148;SDS011;59072;42.144;25.200;2022-07-06T03:43:33;12.95;;;6.80;;
71148;SDS011;59072;42.144;25.200;2022-07-06T03:45:58;11.63;;;6.63;;
71148;SDS011;59072;42.144;25.200;2022-07-06T03:48:23;21.27;;;7.78;;
71148;SDS011;59072;42.144;25.200;2022-07-06T03:50:49;14.90;;;8.13;;
71148;SDS011;59072;42.144;25.200;2022-07-06T03:53:14;16.15;;;8.93;;
71148;SDS011;59072;42.144;25.200;2022-07-06T03:55:40;25.08;;;13.02;;
71148;SDS011;59072;42.144;25.200;2022-07-06T03:58:05;30.42;;;13.52;;
71148;SDS011;59072;42.144;25.200;2022-07-06T04:00:31;16.13;;;7.85;;
71148;SDS011;59072;42.144;25.200;2022-07-06T04:02:57;10.13;;;7.00;;
71148;SDS011;59072;42.144;25.200;2022-07-06T04:05:22;12.07;;;6.35;;
71148;SDS011;59072;42.144;25.200;2022-07-06T04:07:48;10.15;;;6.00;;
71148;SDS011;59072;42.144;25.200;2022-07-06T04:10:14;9.27;;;5.97;;
71148;SDS011;59072;42.144;25.200;2022-07-06T04:12:43;11.05;;;5.72;;
71148;SDS011;59072;42.144;25.200;2022-07-06T04:15:10;12.00;;;6.10;;
71148;SDS011;59072;42.144;25.200;2022-07-06T04:17:37;8.98;;;5.25;;
71148;SDS011;59072;42.144;25.200;2022-07-06T04:20:21;9.55;;;5.57;;
71148;SDS011;59072;42.144;25.200;2022-07-06T04:22:48;11.95;;;5.93;;
71148;SDS011;59072;42.144;25.200;2022-07-06T04:25:14;12.20;;;6.28;;
71148;SDS011;59072;42.144;25.200;2022-07-06T04:27:40;12.15;;;5.53;;
71148;SDS011;59072;42.144;25.200;2022-07-06T04:30:06;12.90;;;5.88;;
71148;SDS011;59072;42.144;25.200;2022-07-06T04:32:32;9.68;;;5.53;;
71148;SDS011;59072;42.144;25.200;2022-07-06T04:34:57;10.20;;;5.25;;
71148;SDS011;59072;42.144;25.200;2022-07-06T04:37:23;13.65;;;5.70;;
71148;SDS011;59072;42.144;25.200;2022-07-06T04:39:49;12.75;;;5.72;;
71148;SDS011;59072;42.144;25.200;2022-07-06T04:42:14;11.57;;;5.32;;
71148;SDS011;59072;42.144;25.200;2022-07-06T04:44:40;9.02;;;5.40;;
71148;SDS011;59072;42.144;25.200;2022-07-06T04:47:05;8.40;;;5.18;;
71148;SDS011;59072;42.144;25.200;2022-07-06T04:49:31;8.63;;;5.65;;
71148;SDS011;59072;42.144;25.200;2022-07-06T04:51:57;9.15;;;6.43;;
71148;SDS011;59072;42.144;25.200;2022-07-06T04:54:22;9.43;;;5.13;;
71148;SDS011;59072;42.144;25.200;2022-07-06T04:56:48;8.55;;;5.43;;
71148;SDS011;59072;42.144;25.200;2022-07-06T04:59:13;8.90;;;5.90;;
71148;SDS011;59072;42.144;25.200;2022-07-06T05:01:39;7.13;;;5.03;;
71148;SDS011;59072;42.144;25.200;2022-07-06T05:04:05;14.35;;;6.00;;
71148;SDS011;59072;42.144;25.200;2022-07-06T05:06:31;13.25;;;5.15;;
71148;SDS011;59072;42.144;25.200;2022-07-06T05:08:57;10.63;;;4.95;;
71148;SDS011;59072;42.144;25.200;2022-07-06T05:11:24;9.00;;;4.97;;
71148;SDS011;59072;42.144;25.200;2022-07-06T05:13:50;9.95;;;5.47;;
71148;SDS011;59072;42.144;25.200;2022-07-06T05:16:16;8.60;;;5.20;;
71148;SDS011;59072;42.144;25.200;2022-07-06T05:18:41;9.70;;;6.10;;
71148;SDS011;59072;42.144;25.200;2022-07-06T05:21:06;11.57;;;5.85;;
71148;SDS011;59072;42.144;25.200;2022-07-06T05:23:32;10.55;;;5.88;;
71148;SDS011;59072;42.144;25.200;2022-07-06T05:25:57;8.68;;;5.93;;
71148;SDS011;59072;42.144;25.200;2022-07-06T05:28:23;10.27;;;6.20;;
71148;SDS011;59072;42.144;25.200;2022-07-06T05:30:48;11.25;;;6.03;;
71148;SDS011;59072;42.144;25.200;2022-07-06T05:33:14;11.02;;;5.95;;
71148;SDS011;59072;42.144;25.200;2022-07-06T05:35:39;10.93;;;5.88;;
71148;SDS011;59072;42.144;25.200;2022-07-06T05:38:05;10.88;;;5.40;;
71148;SDS011;59072;42.144;25.200;2022-07-06T05:40:30;11.10;;;5.20;;
71148;SDS011;59072;42.144;25.200;2022-07-06T05:42:55;9.50;;;5.43;;
71148;SDS011;59072;42.144;25.200;2022-07-06T05:45:21;10.90;;;6.05;;
71148;SDS011;59072;42.144;25.200;2022-07-06T05:47:48;9.10;;;5.63;;
71148;SDS011;59072;42.144;25.200;2022-07-06T05:50:32;11.07;;;5.35;;
71148;SDS011;59072;42.144;25.200;2022-07-06T05:53:02;8.07;;;5.45;;
71148;SDS011;59072;42.144;25.200;2022-07-06T05:55:29;7.53;;;5.30;;
71148;SDS011;59072;42.144;25.200;2022-07-06T05:57:54;10.40;;;5.88;;
71148;SDS011;59072;42.144;25.200;2022-07-06T06:00:21;9.00;;;5.63;;
71148;SDS011;59072;42.144;25.200;2022-07-06T06:02:49;10.38;;;4.93;;
71148;SDS011;59072;42.144;25.200;2022-07-06T06:05:15;8.30;;;5.43;;
71148;SDS011;59072;42.144;25.200;2022-07-06T06:07:41;10.75;;;5.40;;
71148;SDS011;59072;42.144;25.200;2022-07-06T06:10:08;9.13;;;4.95;;
71148;SDS011;59072;42.144;25.200;2022-07-06T06:12:35;8.98;;;5.70;;
71148;SDS011;59072;42.144;25.200;2022-07-06T06:15:00;9.57;;;5.35;;
71148;SDS011;59072;42.144;25.200;2022-07-06T06:17:26;9.75;;;4.93;;
71148;SDS011;59072;42.144;25.200;2022-07-06T06:19:52;8.75;;;5.68;;
71148;SDS011;59072;42.144;25.200;2022-07-06T06:22:17;8.13;;;5.38;;
71148;SDS011;59072;42.144;25.200;2022-07-06T06:24:43;8.35;;;5.15;;
71148;SDS011;59072;42.144;25.200;2022-07-06T06:27:09;10.60;;;5.90;;
71148;SDS011;59072;42.144;25.200;2022-07-06T06:29:34;9.50;;;5.65;;
71148;SDS011;59072;42.144;25.200;2022-07-06T06:32:00;8.73;;;5.10;;
71148;SDS011;59072;42.144;25.200;2022-07-06T06:34:25;9.18;;;5.72;;
71148;SDS011;59072;42.144;25.200;2022-07-06T06:36:50;8.15;;;5.38;;
71148;SDS011;59072;42.144;25.200;2022-07-06T06:39:16;10.27;;;5.72;;
71148;SDS011;59072;42.144;25.200;2022-07-06T06:41:41;9.57;;;5.57;;
71148;SDS011;59072;42.144;25.200;2022-07-06T06:44:07;8.18;;;6.15;;
71148;SDS011;59072;42.144;25.200;2022-07-06T06:46:32;10.45;;;6.00;;
71148;SDS011;59072;42.144;25.200;2022-07-06T06:48:58;16.80;;;6.03;;
71148;SDS011;59072;42.144;25.200;2022-07-06T06:51:23;9.70;;;5.63;;
71148;SDS011;59072;42.144;25.200;2022-07-06T06:53:49;11.23;;;6.45;;
71148;SDS011;59072;42.144;25.200;2022-07-06T06:56:14;8.20;;;5.95;;
71148;SDS011;59072;42.144;25.200;2022-07-06T06:58:40;8.18;;;5.55;;
71148;SDS011;59072;42.144;25.200;2022-07-06T07:01:06;10.02;;;6.35;;
71148;SDS011;59072;42.144;25.200;2022-07-06T07:03:31;10.00;;;5.88;;
71148;SDS011;59072;42.144;25.200;2022-07-06T07:05:58;11.02;;;6.68;;
71148;SDS011;59072;42.144;25.200;2022-07-06T07:08:23;9.15;;;6.18;;
71148;SDS011;59072;42.144;25.200;2022-07-06T07:10:49;10.55;;;6.40;;
71148;SDS011;59072;42.144;25.200;2022-07-06T07:13:14;12.30;;;6.45;;
71148;SDS011;59072;42.144;25.200;2022-07-06T07:15:40;13.07;;;5.88;;
71148;SDS011;59072;42.144;25.200;2022-07-06T07:18:05;9.38;;;6.25;;
71148;SDS011;59072;42.144;25.200;2022-07-06T07:20:31;12.52;;;6.45;;
71148;SDS011;59072;42.144;25.200;2022-07-06T07:22:58;11.70;;;6.22;;
71148;SDS011;59072;42.144;25.200;2022-07-06T07:25:24;11.07;;;6.68;;
71148;SDS011;59072;42.144;25.200;2022-07-06T07:27:50;9.75;;;6.80;;
71148;SDS011;59072;42.144;25.200;2022-07-06T07:30:16;10.52;;;6.30;;
71148;SDS011;59072;42.144;25.200;2022-07-06T07:32:42;9.77;;;6.65;;
71148;SDS011;59072;42.144;25.200;2022-07-06T07:35:07;10.38;;;6.93;;
71148;SDS011;59072;42.144;25.200;2022-07-06T07:37:33;12.40;;;6.50;;
71148;SDS011;59072;42.144;25.200;2022-07-06T07:39:59;8.25;;;5.85;;
71148;SDS011;59072;42.144;25.200;2022-07-06T07:42:25;10.65;;;5.97;;
71148;SDS011;59072;42.144;25.200;2022-07-06T07:44:50;8.43;;;5.45;;
71148;SDS011;59072;42.144;25.200;2022-07-06T07:47:16;7.40;;;4.55;;
71148;SDS011;59072;42.144;25.200;2022-07-06T07:49:42;6.68;;;4.70;;
71148;SDS011;59072;42.144;25.200;2022-07-06T07:52:08;6.65;;;4.88;;
71148;SDS011;59072;42.144;25.200;2022-07-06T07:54:33;7.03;;;5.30;;
71148;SDS011;59072;42.144;25.200;2022-07-06T07:56:59;8.98;;;5.43;;
71148;SDS011;59072;42.144;25.200;2022-07-06T07:59:24;9.85;;;5.68;;
71148;SDS011;59072;42.144;25.200;2022-07-06T08:01:50;11.02;;;6.15;;
71148;SDS011;59072;42.144;25.200;2022-07-06T08:04:16;8.60;;;5.40;;
71148;SDS011;59072;42.144;25.200;2022-07-06T08:06:41;8.57;;;6.25;;
71148;SDS011;59072;42.144;25.200;2022-07-06T08:09:07;8.88;;;5.60;;
71148;SDS011;59072;42.144;25.200;2022-07-06T08:11:35;7.90;;;5.90;;
71148;SDS011;59072;42.144;25.200;2022-07-06T08:14:02;13.73;;;5.97;;
71148;SDS011;59072;42.144;25.200;2022-07-06T08:16:28;9.48;;;6.43;;
71148;SDS011;59072;42.144;25.200;2022-07-06T08:18:53;8.30;;;5.40;;
71148;SDS011;59072;42.144;25.200;2022-07-06T08:21:19;9.68;;;6.65;;
71148;SDS011;59072;42.144;25.200;2022-07-06T08:23:44;9.18;;;5.78;;
71148;SDS011;59072;42.144;25.200;2022-07-06T08:26:11;9.07;;;6.07;;
71148;SDS011;59072;42.144;25.200;2022-07-06T08:28:36;8.05;;;5.95;;
71148;SDS011;59072;42.144;25.200;2022-07-06T08:31:03;9.07;;;6.05;;
71148;SDS011;59072;42.144;25.200;2022-07-06T08:33:28;7.60;;;5.60;;
71148;SDS011;59072;42.144;25.200;2022-07-06T08:35:54;8.80;;;5.55;;
71148;SDS011;59072;42.144;25.200;2022-07-06T08:38:19;9.40;;;5.82;;
71148;SDS011;59072;42.144;25.200;2022-07-06T08:40:48;10.15;;;5.80;;
71148;SDS011;59072;42.144;25.200;2022-07-06T08:43:15;8.15;;;5.28;;
71148;SDS011;59072;42.144;25.200;2022-07-06T08:45:41;9.50;;;5.57;;
71148;SDS011;59072;42.144;25.200;2022-07-06T08:48:10;7.15;;;5.38;;
71148;SDS011;59072;42.144;25.200;2022-07-06T08:50:37;7.45;;;5.05;;
71148;SDS011;59072;42.144;25.200;2022-07-06T08:53:03;8.48;;;5.28;;
71148;SDS011;59072;42.144;25.200;2022-07-06T08:55:29;9.18;;;4.95;;
71148;SDS011;59072;42.144;25.200;2022-07-06T08:57:55;8.85;;;4.90;;
71148;SDS011;59072;42.144;25.200;2022-07-06T09:00:22;8.23;;;4.82;;
71148;SDS011;59072;42.144;25.200;2022-07-06T09:02:49;8.35;;;4.65;;
71148;SDS011;59072;42.144;25.200;2022-07-06T09:05:16;5.90;;;4.20;;
71148;SDS011;59072;42.144;25.200;2022-07-06T09:07:42;7.32;;;5.25;;
71148;SDS011;59072;42.144;25.200;2022-07-06T09:10:14;8.35;;;4.93;;
71148;SDS011;59072;42.144;25.200;2022-07-06T09:12:42;8.15;;;5.00;;
71148;SDS011;59072;42.144;25.200;2022-07-06T09:15:07;9.40;;;5.20;;
71148;SDS011;59072;42.144;25.200;2022-07-06T09:17:33;6.30;;;4.00;;
71148;SDS011;59072;42.144;25.200;2022-07-06T09:20:05;7.32;;;4.40;;
71148;SDS011;59072;42.144;25.200;2022-07-06T09:22:33;7.50;;;4.65;;
71148;SDS011;59072;42.144;25.200;2022-07-06T09:25:17;7.07;;;4.25;;
71148;SDS011;59072;42.144;25.200;2022-07-06T09:27:47;7.28;;;4.63;;
71148;SDS011;59072;42.144;25.200;2022-07-06T09:30:16;11.07;;;5.03;;
71148;SDS011;59072;42.144;25.200;2022-07-06T09:32:46;6.15;;;4.28;;
71148;SDS011;59072;42.144;25.200;2022-07-06T09:38:07;8.20;;;4.32;;
71148;SDS011;59072;42.144;25.200;2022-07-06T09:40:43;7.03;;;4.82;;
71148;SDS011;59072;42.144;25.200;2022-07-06T09:43:14;5.63;;;4.28;;
71148;SDS011;59072;42.144;25.200;2022-07-06T09:45:48;7.15;;;4.45;;
71148;SDS011;59072;42.144;25.200;2022-07-06T09:48:19;8.35;;;4.70;;
71148;SDS011;59072;42.144;25.200;2022-07-06T09:50:54;7.07;;;4.50;;
71148;SDS011;59072;42.144;25.200;2022-07-06T09:53:22;9.55;;;4.93;;
71148;SDS011;59072;42.144;25.200;2022-07-06T09:55:53;8.18;;;6.68;;
71148;SDS011;59072;42.144;25.200;2022-07-06T09:58:21;10.55;;;7.82;;
71148;SDS011;59072;42.144;25.200;2022-07-06T10:03:14;8.52;;;7.07;;
71148;SDS011;59072;42.144;25.200;2022-07-06T10:05:41;9.15;;;6.70;;
71148;SDS011;59072;42.144;25.200;2022-07-06T10:08:08;8.13;;;7.10;;
71148;SDS011;59072;42.144;25.200;2022-07-06T10:10:34;10.38;;;6.57;;
71148;SDS011;59072;42.144;25.200;2022-07-06T10:13:02;12.50;;;7.13;;
71148;SDS011;59072;42.144;25.200;2022-07-06T10:15:29;10.02;;;6.53;;
71148;SDS011;59072;42.144;25.200;2022-07-06T10:18:02;8.85;;;6.90;;
71148;SDS011;59072;42.144;25.200;2022-07-06T10:20:31;8.30;;;6.28;;
71148;SDS011;59072;42.144;25.200;2022-07-06T10:23:00;9.85;;;6.95;;
71148;SDS011;59072;42.144;25.200;2022-07-06T10:25:27;11.38;;;7.47;;
71148;SDS011;59072;42.144;25.200;2022-07-06T10:27:53;10.17;;;8.07;;
71148;SDS011;59072;42.144;25.200;2022-07-06T10:30:20;10.35;;;7.95;;
71148;SDS011;59072;42.144;25.200;2022-07-06T10:32:47;10.18;;;8.68;;
71148;SDS011;59072;42.144;25.200;2022-07-06T10:35:15;11.00;;;8.65;;
71148;SDS011;59072;42.144;25.200;2022-07-06T10:37:43;10.90;;;8.80;;
71148;SDS011;59072;42.144;25.200;2022-07-06T10:40:09;10.63;;;9.52;;
71148;SDS011;59072;42.144;25.200;2022-07-06T10:42:57;11.45;;;9.27;;
71148;SDS011;59072;42.144;25.200;2022-07-06T10:48:38;12.80;;;9.10;;
71148;SDS011;59072;42.144;25.200;2022-07-06T10:50:45;11.90;;;9.48;;
71148;SDS011;59072;42.144;25.200;2022-07-06T10:53:16;11.93;;;8.93;;
71148;SDS011;59072;42.144;25.200;2022-07-06T10:55:49;17.30;;;9.18;;
71148;SDS011;59072;42.144;25.200;2022-07-06T11:01:01;10.93;;;9.15;;
71148;SDS011;59072;42.144;25.200;2022-07-06T11:03:34;11.68;;;8.80;;
71148;SDS011;59072;42.144;25.200;2022-07-06T11:06:04;13.88;;;9.88;;
71148;SDS011;59072;42.144;25.200;2022-07-06T11:08:43;11.35;;;9.82;;
71148;SDS011;59072;42.144;25.200;2022-07-06T11:11:13;13.20;;;9.70;;
71148;SDS011;59072;42.144;25.200;2022-07-06T11:13:47;12.55;;;9.80;;
71148;SDS011;59072;42.144;25.200;2022-07-06T11:16:15;13.07;;;10.00;;
71148;SDS011;59072;42.144;25.200;2022-07-06T11:18:45;14.00;;;10.50;;
71148;SDS011;59072;42.144;25.200;2022-07-06T11:21:20;11.63;;;10.20;;
71148;SDS011;59072;42.144;25.200;2022-07-06T11:23:56;13.73;;;10.05;;
71148;SDS011;59072;42.144;25.200;2022-07-06T11:26:23;13.50;;;10.50;;
71148;SDS011;59072;42.144;25.200;2022-07-06T11:28:50;12.20;;;10.63;;
71148;SDS011;59072;42.144;25.200;2022-07-06T11:33:46;11.63;;;10.43;;
71148;SDS011;59072;42.144;25.200;2022-07-06T11:38:38;11.82;;;10.70;;
71148;SDS011;59072;42.144;25.200;2022-07-06T11:41:04;11.82;;;10.57;;
71148;SDS011;59072;42.144;25.200;2022-07-06T11:43:30;12.23;;;10.50;;
71148;SDS011;59072;42.144;25.200;2022-07-06T11:45:55;11.80;;;10.57;;
71148;SDS011;59072;42.144;25.200;2022-07-06T11:48:22;14.55;;;11.05;;
71148;SDS011;59072;42.144;25.200;2022-07-06T11:51:00;11.93;;;10.23;;
71148;SDS011;59072;42.144;25.200;2022-07-06T11:53:27;12.23;;;10.23;;
71148;SDS011;59072;42.144;25.200;2022-07-06T11:55:53;12.43;;;10.23;;
71148;SDS011;59072;42.144;25.200;2022-07-06T11:58:20;14.00;;;10.40;;
71148;SDS011;59072;42.144;25.200;2022-07-06T12:01:03;13.95;;;10.82;;
71148;SDS011;59072;42.144;25.200;2022-07-06T12:03:29;12.63;;;10.77;;
71148;SDS011;59072;42.144;25.200;2022-07-06T12:05:55;11.00;;;9.90;;
71148;SDS011;59072;42.144;25.200;2022-07-06T12:08:21;10.88;;;9.43;;
71148;SDS011;59072;42.144;25.200;2022-07-06T12:10:46;12.40;;;9.10;;
71148;SDS011;59072;42.144;25.200;2022-07-06T12:13:12;13.07;;;9.43;;
71148;SDS011;59072;42.144;25.200;2022-07-06T12:15:37;12.20;;;9.77;;
71148;SDS011;59072;42.144;25.200;2022-07-06T12:18:03;10.82;;;9.00;;
71148;SDS011;59072;42.144;25.200;2022-07-06T12:20:28;10.70;;;9.02;;
71148;SDS011;59072;42.144;25.200;2022-07-06T12:23:04;10.20;;;9.07;;
71148;SDS011;59072;42.144;25.200;2022-07-06T12:25:34;10.82;;;9.73;;
71148;SDS011;59072;42.144;25.200;2022-07-06T12:28:00;12.70;;;9.20;;
71148;SDS011;59072;42.144;25.200;2022-07-06T12:30:26;12.32;;;9.30;;
71148;SDS011;59072;42.144;25.200;2022-07-06T12:33:10;12.15;;;8.88;;
71148;SDS011;59072;42.144;25.200;2022-07-06T12:35:41;11.02;;;9.13;;
71148;SDS011;59072;42.144;25.200;2022-07-06T12:38:07;11.97;;;8.90;;
71148;SDS011;59072;42.144;25.200;2022-07-06T12:40:34;17.52;;;8.85;;
71148;SDS011;59072;42.144;25.200;2022-07-06T12:43:01;11.02;;;8.32;;
71148;SDS011;59072;42.144;25.200;2022-07-06T12:45:28;12.77;;;8.73;;
71148;SDS011;59072;42.144;25.200;2022-07-06T12:48:04;9.70;;;8.27;;
71148;SDS011;59072;42.144;25.200;2022-07-06T12:50:31;12.50;;;8.97;;
71148;SDS011;59072;42.144;25.200;2022-07-06T12:52:58;10.77;;;8.35;;
71148;SDS011;59072;42.144;25.200;2022-07-06T12:55:27;12.50;;;8.82;;
71148;SDS011;59072;42.144;25.200;2022-07-06T12:57:54;10.80;;;8.20;;
71148;SDS011;59072;42.144;25.200;2022-07-06T13:00:21;10.38;;;8.20;;
71148;SDS011;59072;42.144;25.200;2022-07-06T13:02:48;11.07;;;8.38;;
71148;SDS011;59072;42.144;25.200;2022-07-06T13:05:21;12.57;;;7.88;;
71148;SDS011;59072;42.144;25.200;2022-07-06T13:07:54;9.82;;;8.15;;
71148;SDS011;59072;42.144;25.200;2022-07-06T13:10:22;11.60;;;8.07;;
71148;SDS011;59072;42.144;25.200;2022-07-06T13:12:48;9.25;;;8.25;;
71148;SDS011;59072;42.144;25.200;2022-07-06T13:15:14;10.07;;;9.00;;
71148;SDS011;59072;42.144;25.200;2022-07-06T13:17:40;10.13;;;8.00;;
71148;SDS011;59072;42.144;25.200;2022-07-06T13:20:09;10.30;;;8.00;;
71148;SDS011;59072;42.144;25.200;2022-07-06T13:22:37;10.50;;;8.43;;
71148;SDS011;59072;42.144;25.200;2022-07-06T13:25:03;10.77;;;7.97;;
71148;SDS011;59072;42.144;25.200;2022-07-06T13:27:29;9.40;;;8.30;;
71148;SDS011;59072;42.144;25.200;2022-07-06T13:29:55;11.13;;;8.32;;
71148;SDS011;59072;42.144;25.200;2022-07-06T13:32:20;11.85;;;9.65;;
71148;SDS011;59072;42.144;25.200;2022-07-06T13:34:46;11.48;;;9.65;;
71148;SDS011;59072;42.144;25.200;2022-07-06T13:37:12;10.15;;;9.02;;
71148;SDS011;59072;42.144;25.200;2022-07-06T13:39:38;10.43;;;9.30;;
71148;SDS011;59072;42.144;25.200;2022-07-06T13:42:03;9.65;;;8.27;;
71148;SDS011;59072;42.144;25.200;2022-07-06T13:44:29;10.25;;;8.77;;
71148;SDS011;59072;42.144;25.200;2022-07-06T13:46:55;13.60;;;8.95;;
71148;SDS011;59072;42.144;25.200;2022-07-06T13:49:20;10.80;;;8.40;;
71148;SDS011;59072;42.144;25.200;2022-07-06T13:51:46;9.57;;;8.38;;
71148;SDS011;59072;42.144;25.200;2022-07-06T13:54:11;10.00;;;8.77;;
71148;SDS011;59072;42.144;25.200;2022-07-06T13:56:37;10.52;;;8.30;;
71148;SDS011;59072;42.144;25.200;2022-07-06T13:59:04;12.02;;;9.05;;
71148;SDS011;59072;42.144;25.200;2022-07-06T14:01:29;11.80;;;8.55;;
71148;SDS011;59072;42.144;25.200;2022-07-06T14:03:55;10.25;;;8.60;;
71148;SDS011;59072;42.144;25.200;2022-07-06T14:06:21;10.27;;;8.25;;
71148;SDS011;59072;42.144;25.200;2022-07-06T14:08:46;9.60;;;8.20;;
71148;SDS011;59072;42.144;25.200;2022-07-06T14:11:12;11.35;;;8.20;;
71148;SDS011;59072;42.144;25.200;2022-07-06T14:13:38;9.43;;;7.75;;
71148;SDS011;59072;42.144;25.200;2022-07-06T14:16:05;8.80;;;7.90;;
71148;SDS011;59072;42.144;25.200;2022-07-06T14:18:31;10.45;;;8.35;;
71148;SDS011;59072;42.144;25.200;2022-07-06T14:20:57;9.23;;;8.23;;
71148;SDS011;59072;42.144;25.200;2022-07-06T14:23:23;9.75;;;7.85;;
71148;SDS011;59072;42.144;25.200;2022-07-06T14:25:49;9.40;;;7.53;;
71148;SDS011;59072;42.144;25.200;2022-07-06T14:28:16;9.55;;;7.97;;
71148;SDS011;59072;42.144;25.200;2022-07-06T14:30:43;9.93;;;8.50;;
71148;SDS011;59072;42.144;25.200;2022-07-06T14:33:10;8.98;;;7.82;;
71148;SDS011;59072;42.144;25.200;2022-07-06T14:35:37;8.63;;;7.10;;
71148;SDS011;59072;42.144;25.200;2022-07-06T14:38:04;11.60;;;7.93;;
71148;SDS011;59072;42.144;25.200;2022-07-06T14:40:31;10.48;;;8.68;;
71148;SDS011;59072;42.144;25.200;2022-07-06T14:42:57;8.48;;;7.57;;
71148;SDS011;59072;42.144;25.200;2022-07-06T14:45:24;12.38;;;8.55;;